Weather observations for the past three days for
Torrington Municipal Airport
Metric (Imperial)
Date Time (mdt) Wind (kph) Vis. (km) Weather Sky Cond. Temperature (ºC) Relative Humidity Wind Chill (°C) Heat Index (°C) Pressure Precipitation (cm)
Air Dwpt 6 hour altimeter (cm) sea level (mb) 1 hr 3 hr 6 hr
Max. Min.
03 12:53 Calm 16.09 Fair CLR 19.4 -1.7 24% 76.05 1010.9
03 11:53 S 22 G 33 16.09 Fair CLR 18.3 -1.1 19.4 5 27% 76.15 1012.1
03 10:53 E 15 G 31 16.09 Fair CLR 17.2 -0.6 30% 76.23 1013.2
03 09:53 SE 19 16.09 Fair CLR 15.6 -1.1 32% 76.25 1013.5
03 08:53 SE 19 G 28 16.09 Fair CLR 13.9 -0.6 37% 76.28 1014.2
03 07:53 Vrbl 9 16.09 Fair CLR 11.7 0 45% 76.3 1014.0
03 06:53 NE 13 16.09 Fair CLR 6.1 -1.1 60% 4 76.25 1013.9
03 05:53 N 6 16.09 Fair CLR 5 -1.7 13.3 4.4 62% 76.2 1013.1
03 04:53 N 13 16.09 Fair CLR 6.1 -1.7 58% 4 76.2 1012.7
03 03:53 N 19 16.09 Fair CLR 7.2 -1.7 54% 4 76.2 1012.6
03 02:53 NW 6 16.09 Fair CLR 7.2 -1.7 54% 76.17 1012.4
03 01:53 N 6 16.09 Fair CLR 10 -1.7 44% 76.15 1012.0
03 00:53 E 9 16.09 Fair CLR 11.7 -2.2 38% 76.17 1012.3
02 23:53 Calm 16.09 Fair CLR 12.8 -6.1 24.4 12.2 26% 76.17 1012.4
02 22:53 NE 15 16.09 Fair CLR 13.3 -8.3 22% 76.15 1012.3
02 21:53 Calm 16.09 Fair CLR 15 -8.3 19% 76.1 1012.2
02 20:53 N 11 16.09 Fair CLR 16.1 -10.6 15% 76.07 1012.4
02 19:53 NW 15 16.09 Fair CLR 20.6 -11.7 10% 76.02 1011.6
02 18:53 NW 20 G 31 16.09 Fair CLR 23.3 -10.6 10% 76.02 1011.5
02 17:53 W 15 16.09 Fair CLR 24.4 -12.2 25 20 8% 24 76.05 1011.9
02 16:53 W 15 16.09 Fair CLR 24.4 -12.2 8% 24 76.07 1012.5
02 15:53 NW 19 16.09 Fair CLR 24.4 -12.8 7% 24 76.15 1013.0
02 14:53 NW 20 G 37 16.09 Fair CLR 23.9 -11.7 8% 24 76.2 1014.0
02 13:53 W 24 G 46 16.09 Fair CLR 23.3 -11.1 9% 76.28 1014.4
02 12:53 W 11 G 28 16.09 Fair CLR 21.1 -10 11% 76.33 1015.7
02 11:53 W 19 16.09 Fair CLR 20 -6.7 20 -1.7 16% 76.43 1016.7
02 10:53 W 7 16.09 Fair CLR 16.1 -2.8 27% 76.48 1018.1
02 09:53 SW 6 16.09 Fair CLR 11.1 -2.8 38% 76.53 1019.1
02 08:53 Calm 12.87 Fair CLR 7.2 -3.3 48% 76.56 1019.9
02 07:53 Calm 16.09 Fair CLR 3.9 -3.3 60% 76.56 1019.9
02 06:53 Calm 16.09 Fair CLR 0.6 -3.9 72% 76.58 1020.1
02 05:53 W 6 16.09 Fair CLR -0.6 -4.4 5 -1.1 76% 76.58 1020.2
02 04:53 E 13 16.09 Fair CLR -1.1 -5 75% -5 76.58 1020.7
02 03:53 E 7 16.09 Fair CLR 0 -4.4 73% -2 76.61 1020.6
02 02:53 NE 7 16.09 Fair CLR 0 -4.4 73% -2 76.61 1020.5
02 01:53 Calm 16.09 Fair CLR 3.9 -3.9 57% 76.66 1020.5
02 00:53 NE 7 16.09 Fair CLR 3.3 -3.9 60% 2 76.66 1021.1
01 23:53 E 7 16.09 Fair CLR 5 -3.9 17.8 5 53% 4 76.63 1020.5
01 22:53 E 15 16.09 Fair CLR 6.1 -3.9 49% 3 76.58 1019.9
01 21:53 E 17 16.09 Fair CLR 8.3 -4.4 41% 6 76.56 1019.6
01 20:53 NE 17 16.09 Fair CLR 10 -5 35% 8 76.45 1018.5
01 19:53 NE 15 16.09 Overcast OVC100 14.4 -6.7 23% 76.38 1016.9
01 18:53 NW 19 16.09 Overcast OVC110 16.7 -6.7 20% 76.33 1016.9
01 17:53 NW 24 G 43 16.09 Mostly Cloudy BKN110 17.8 -7.2 18.9 14.4 18% 76.3 1016.8
01 16:53 NW 20 G 41 16.09 A Few Clouds FEW120 16.7 -7.8 18% 76.33 1016.8
01 15:53 N 20 G 43 16.09 Partly Cloudy SCT110 17.2 -7.8 17% 76.33 1016.7
01 14:53 NW 22 G 46 16.09 Mostly Cloudy BKN100 18.3 -7.2 17% 76.35 1016.8
01 13:53 N 24 G 44 16.09 A Few Clouds FEW095 17.2 -7.8 17% 76.4 1017.9
01 12:53 NW 24 G 41 16.09 Fair CLR 15.6 -8.3 19% 76.45 1018.3
01 11:53 N 24 G 46 16.09 A Few Clouds FEW085 14.4 -8.3 15 -1.7 20% 76.48 1018.8
01 10:53 N 22 G 41 16.09 Fair CLR 13.9 -8.3 21% 76.5 1018.6
01 09:53 N 17 16.09 Fair CLR 11.7 -5 31% 76.5 1018.7
01 08:53 W 15 16.09 Fair CLR 8.9 -3.9 41% 7 76.53 1019.5
01 07:53 NW 17 16.09 Fair CLR 5.6 -4.4 49% 3 76.53 1019.6
01 06:53 W 6 16.09 Fair CLR 0 -5 69% 76.5 1020.0
01 05:53 W 7 16.09 Fair CLR -1.7 -5.6 5 -1.7 75% -4 76.48 1019.9
01 04:53 NW 7 16.09 Fair CLR 0 -5.6 66% -2 76.48 1019.6
01 03:53 W 9 16.09 A Few Clouds FEW085 0.6 -5.6 64% -2 76.48 1019.5
01 02:53 NW 11 16.09 Overcast OVC085 1.7 -6.1 57% -1 76.48 1019.5
01 01:53 NW 9 16.09 Fair CLR 0 -6.1 64% -3 76.5 1020.0
01 00:53 NW 9 16.09 Fair CLR 2.8 -5.6 54% 1 76.5 1019.9
30 23:53 Calm 16.09 Fair CLR 4.4 -6.1 13.3 3.3 47% 76.53 1019.8
30 22:53 Calm 16.09 A Few Clouds FEW090 7.2 -7.8 34% 76.5 1019.3
30 21:53 NW 6 16.09 Fair CLR 7.8 -7.2 34% 76.5 1019.4
30 20:53 N 7 16.09 Mostly Cloudy BKN100 8.9 -7.2 32% 8 76.48 1018.9
30 19:53 N 15 16.09 Overcast OVC100 11.1 -7.8 26% 76.43 1018.2
30 18:53 N 9 16.09 Mostly Cloudy BKN095 12.8 -8.3 22% 76.38 1017.8
30 17:53 NW 19 G 30 16.09 Mostly Cloudy BKN095 13.3 -8.9 14.4 10.6 21% 76.4 1017.8
30 16:53 NW 15 16.09 Mostly Cloudy BKN090 13.9 -8.9 20% 76.4 1017.6
30 15:53 N 20 G 37 16.09 Partly Cloudy SCT090 13.3 -8.9 21% 76.43 1018.0
30 14:53 Vrbl 9 G 41 16.09 Mostly Cloudy BKN085 12.8 -8.9 21% 76.48 1018.9
30 13:53 Calm 16.09 Partly Cloudy SCT085 12.8 -9.4 21% 76.5 1019.1
Date Time (mdt) Wind (kph) Vis. (km) Weather Sky Cond. Air Dwpt Max. Min. Relative Humidity Wind Chill (°C) Heat Index (°C) altimeter (cm) sea level (mb) 1 hr 3 hr 6 hr
6 hour
Temperature (ºC) Pressure Precipitation (cm)